YCFS

Coffs Harbour Airport

Airport
ICAO code
YCFS
IATA Code
CFS
Summary
ICAO Region
APAC
ICAO Territory
Location

Boambee, New South Wales

Serving
Coff's Harbour
Elevation
18 ft
Coordinates
30° 19' 14" S , 153° 6' 59" E
KCC
Metar
YCFS 301430Z AUTO 00000KT 9999 // SCT031 SCT041 BKN077 15/13 Q1024

Airport serving Coffs Harbour, New South Wales, Australia. ICAO code was YSCH until November 2007.

Airport map

Aerial View

SKYbrary Partners:

Safety knowledge contributed by: